Time;durP1;ratioP1;P1;durP2;ratioP2;P2;SDS_P1;SDS_P2;PMS_P1;PMS_P2;Temp;Humidity;BMP_temperature;BMP_pressure;BME280_temperature;BME280_humidity;BME280_pressure;Samples;Min_cycle;Max_cycle;Signal;HPM_P1;HPM_P2
2021/10/29 00:01:25;;;;;;;53.60;33.60;;;8.90;99.90;;;;;;5111593;28;20585;-65
2021/10/29 00:03:51;;;;;;;53.47;34.07;;;9.00;99.90;;;;;;5110180;28;20204;-65
2021/10/29 00:06:18;;;;;;;47.17;32.70;;;8.90;99.90;;;;;;5108551;28;20220;-65
2021/10/29 00:08:46;;;;;;;53.37;34.47;;;8.90;99.90;;;;;;5108067;28;20212;-65
2021/10/29 00:11:14;;;;;;;49.80;33.40;;;8.90;99.90;;;;;;5112105;28;20206;-66
2021/10/29 00:13:40;;;;;;;54.07;34.20;;;8.90;99.90;;;;;;5111729;28;20223;-66
2021/10/29 00:16:07;;;;;;;51.33;32.60;;;8.90;99.90;;;;;;5112016;28;20286;-65
2021/10/29 00:18:34;;;;;;;49.77;31.67;;;8.90;99.90;;;;;;5107417;28;20231;-63
2021/10/29 00:21:01;;;;;;;54.20;34.53;;;8.90;99.90;;;;;;5108578;28;20216;-65
2021/10/29 00:23:30;;;;;;;53.77;35.07;;;8.90;99.90;;;;;;5130416;27;20228;-64
2021/10/29 00:25:59;;;;;;;51.90;34.10;;;8.80;99.90;;;;;;5115997;28;20564;-65
2021/10/29 00:28:26;;;;;;;55.87;34.30;;;8.80;99.90;;;;;;5108876;28;20235;-64
2021/10/29 00:30:54;;;;;;;53.10;34.70;;;8.80;99.90;;;;;;5103465;28;20280;-65
2021/10/29 00:33:21;;;;;;;57.90;37.83;;;8.80;99.90;;;;;;5115543;28;20204;-65
2021/10/29 00:35:48;;;;;;;58.03;36.33;;;8.80;99.90;;;;;;5115934;28;20203;-64
2021/10/29 00:38:14;;;;;;;55.47;35.00;;;8.60;99.90;;;;;;5116076;28;20648;-65
2021/10/29 00:40:41;;;;;;;55.23;35.60;;;8.60;99.90;;;;;;5115818;27;20648;-64
2021/10/29 00:43:11;;;;;;;55.93;36.37;;;8.70;99.90;;;;;;5126652;27;20209;-64
2021/10/29 00:45:39;;;;;;;55.60;33.93;;;8.60;99.90;;;;;;5117649;27;20200;-64
2021/10/29 00:48:07;;;;;;;54.53;33.20;;;8.60;99.90;;;;;;5115013;28;20208;-65
2021/10/29 00:50:35;;;;;;;51.50;34.13;;;8.60;99.90;;;;;;5116210;27;20230;-64
2021/10/29 00:53:02;;;;;;;53.53;34.93;;;8.60;99.90;;;;;;5132549;27;20630;-66
2021/10/29 00:55:29;;;;;;;53.00;34.40;;;8.60;99.90;;;;;;5124561;27;20273;-65
2021/10/29 00:57:56;;;;;;;52.10;32.70;;;8.60;99.90;;;;;;5127409;27;20222;-64
2021/10/29 01:00:24;;;;;;;51.87;31.87;;;8.60;99.90;;;;;;5106402;28;20247;-65
2021/10/29 01:02:51;;;;;;;53.93;34.27;;;8.60;99.90;;;;;;5110262;28;20310;-66
2021/10/29 01:05:19;;;;;;;55.33;35.40;;;8.60;99.90;;;;;;5122696;27;20283;-64
2021/10/29 01:07:46;;;;;;;55.23;34.87;;;8.60;99.90;;;;;;5118749;27;20199;-66
2021/10/29 01:10:12;;;;;;;54.97;34.70;;;8.60;99.90;;;;;;5106490;27;20203;-66
2021/10/29 01:12:39;;;;;;;52.43;32.80;;;8.60;99.90;;;;;;5122532;27;20207;-65
2021/10/29 01:15:08;;;;;;;48.80;33.50;;;8.60;99.90;;;;;;5114511;28;20215;-65
2021/10/29 01:17:37;;;;;;;53.60;33.43;;;8.60;99.90;;;;;;5114091;28;20657;-64
2021/10/29 01:20:05;;;;;;;54.03;33.63;;;8.60;99.90;;;;;;5110084;27;20647;-65
2021/10/29 01:22:34;;;;;;;54.00;32.50;;;8.60;99.90;;;;;;5113675;27;20425;-65
2021/10/29 01:25:01;;;;;;;52.27;33.80;;;8.60;99.90;;;;;;5114872;27;20205;-66
2021/10/29 01:27:27;;;;;;;53.20;33.57;;;8.60;99.90;;;;;;5115342;28;20214;-65
2021/10/29 01:29:54;;;;;;;50.70;34.20;;;8.60;99.90;;;;;;5113827;28;20200;-64
2021/10/29 01:32:23;;;;;;;50.53;33.10;;;8.60;99.90;;;;;;5113639;28;20286;-65
2021/10/29 01:34:50;;;;;;;53.00;34.27;;;8.60;99.90;;;;;;5118519;27;20299;-65
2021/10/29 01:37:17;;;;;;;50.63;34.10;;;8.60;99.90;;;;;;5113174;28;20246;-65
2021/10/29 01:39:46;;;;;;;50.90;33.50;;;8.60;99.90;;;;;;5120037;27;20564;-65
2021/10/29 01:42:13;;;;;;;55.67;34.80;;;8.60;99.90;;;;;;5112172;28;20220;-65
2021/10/29 01:44:40;;;;;;;58.47;34.83;;;8.60;99.90;;;;;;5121987;27;20297;-65
2021/10/29 01:47:08;;;;;;;52.93;33.27;;;8.60;99.90;;;;;;5114159;28;20204;-65
2021/10/29 01:49:36;;;;;;;52.30;32.83;;;8.60;99.90;;;;;;5113181;28;20210;-64
2021/10/29 01:52:04;;;;;;;51.87;33.83;;;8.60;99.90;;;;;;5114355;28;20212;-66
2021/10/29 01:54:30;;;;;;;53.60;34.97;;;8.60;99.90;;;;;;5111096;28;21319;-65
2021/10/29 01:56:59;;;;;;;57.37;35.23;;;8.50;99.90;;;;;;5111679;27;20229;-65
2021/10/29 01:59:27;;;;;;;50.63;33.33;;;8.50;99.90;;;;;;5118170;27;20292;-65
2021/10/29 02:01:54;;;;;;;52.17;33.80;;;8.50;99.90;;;;;;5113896;27;20322;-66
2021/10/29 02:04:21;;;;;;;50.73;34.47;;;8.50;99.90;;;;;;5124419;27;20208;-66
2021/10/29 02:06:48;;;;;;;54.17;34.10;;;8.50;99.90;;;;;;5112675;27;20299;-64
2021/10/29 02:09:15;;;;;;;53.90;35.03;;;8.50;99.90;;;;;;5105716;28;20200;-65
2021/10/29 02:11:42;;;;;;;51.40;33.70;;;8.50;99.90;;;;;;5113880;28;20226;-66
2021/10/29 02:14:11;;;;;;;51.57;33.63;;;8.40;99.90;;;;;;5113997;28;20219;-65
2021/10/29 02:16:38;;;;;;;52.57;33.90;;;8.40;99.90;;;;;;5127427;27;20735;-65
2021/10/29 02:19:05;;;;;;;52.83;34.10;;;8.40;99.90;;;;;;5100906;28;20212;-65
2021/10/29 02:21:32;;;;;;;53.23;33.97;;;8.40;99.90;;;;;;5110157;27;20218;-65
2021/10/29 02:23:59;;;;;;;56.33;34.13;;;8.30;99.90;;;;;;5126444;27;20267;-66
2021/10/29 02:26:28;;;;;;;53.30;33.67;;;8.30;99.90;;;;;;5113845;28;20204;-66
2021/10/29 02:28:55;;;;;;;52.03;33.67;;;8.30;99.90;;;;;;5099937;28;20264;-66
2021/10/29 02:31:24;;;;;;;54.07;33.93;;;8.30;99.90;;;;;;5114120;28;20211;-65
2021/10/29 02:33:51;;;;;;;55.63;33.67;;;8.20;99.90;;;;;;5112588;28;20214;-65
2021/10/29 02:36:18;;;;;;;48.93;33.83;;;8.20;99.90;;;;;;5112186;28;20687;-64
2021/10/29 02:38:45;;;;;;;54.10;33.67;;;8.20;99.90;;;;;;5127570;27;20576;-65
2021/10/29 02:41:12;;;;;;;52.47;32.97;;;8.10;99.90;;;;;;5113877;28;20212;-65
2021/10/29 02:43:40;;;;;;;52.90;34.47;;;8.10;99.90;;;;;;5113569;27;20208;-65
2021/10/29 02:46:07;;;;;;;49.43;32.77;;;8.10;99.90;;;;;;5114283;27;20206;-65
2021/10/29 02:48:35;;;;;;;54.67;32.93;;;8.10;99.90;;;;;;5122019;27;20209;-64
2021/10/29 02:51:02;;;;;;;45.60;31.23;;;8.10;99.90;;;;;;5118962;27;20211;-64
2021/10/29 02:53:31;;;;;;;50.97;32.60;;;8.00;99.90;;;;;;5124553;27;20204;-65
2021/10/29 02:55:58;;;;;;;50.83;33.70;;;8.00;99.90;;;;;;5111919;28;20212;-65
2021/10/29 02:58:26;;;;;;;46.87;33.00;;;8.00;99.90;;;;;;5111516;27;20290;-64
2021/10/29 03:00:53;;;;;;;55.97;33.67;;;8.00;99.90;;;;;;5119712;27;20204;-64
2021/10/29 03:03:20;;;;;;;52.17;33.33;;;8.00;99.90;;;;;;5103841;27;20614;-65
2021/10/29 03:05:48;;;;;;;52.27;32.93;;;7.90;99.90;;;;;;5112427;28;20619;-66
2021/10/29 03:08:15;;;;;;;49.80;31.60;;;7.90;99.90;;;;;;5106435;27;20199;-65
2021/10/29 03:10:42;;;;;;;47.90;32.07;;;7.90;99.90;;;;;;5122585;27;20634;-66
2021/10/29 03:13:09;;;;;;;48.03;32.50;;;7.90;99.90;;;;;;5112952;28;20204;-66
2021/10/29 03:15:36;;;;;;;50.07;32.10;;;7.90;99.90;;;;;;5112206;28;20261;-65
2021/10/29 03:18:03;;;;;;;47.03;31.63;;;7.80;99.90;;;;;;5110443;28;20218;-65
2021/10/29 03:20:29;;;;;;;47.10;31.03;;;7.80;99.90;;;;;;5112812;28;20203;-66
2021/10/29 03:22:58;;;;;;;49.17;30.77;;;7.80;99.90;;;;;;5112756;28;20230;-66
2021/10/29 03:25:25;;;;;;;47.23;30.43;;;7.80;99.90;;;;;;5118032;27;20326;-66
2021/10/29 03:27:52;;;;;;;52.03;32.40;;;7.80;99.90;;;;;;5118706;27;20233;-65
2021/10/29 03:30:20;;;;;;;47.97;32.97;;;7.80;99.90;;;;;;5112411;28;21074;-65
2021/10/29 03:32:47;;;;;;;48.60;30.93;;;7.80;99.90;;;;;;5122350;27;20640;-66
2021/10/29 03:35:14;;;;;;;45.27;31.17;;;7.70;99.90;;;;;;5116161;27;20211;-65
2021/10/29 03:38:02;;;;;;;49.53;32.13;;;7.70;99.90;;;;;;5108582;28;20207;-65
2021/10/29 03:40:39;;;;;;;50.87;32.43;;;7.70;99.90;;;;;;5112066;28;20231;-65
2021/10/29 03:43:11;;;;;;;52.10;31.67;;;7.70;99.90;;;;;;5112089;28;20219;-64
2021/10/29 03:45:44;;;;;;;49.07;32.50;;;7.70;99.90;;;;;;5110777;28;20200;-65
2021/10/29 03:48:13;;;;;;;47.90;31.20;;;7.70;99.90;;;;;;5108881;27;20207;-65
2021/10/29 03:50:44;;;;;;;47.47;31.10;;;7.60;99.90;;;;;;5119055;27;20688;-66
2021/10/29 03:53:23;;;;;;;48.83;31.37;;;7.60;99.90;;;;;;5121505;27;20195;-65
2021/10/29 03:55:53;;;;;;;47.30;30.43;;;7.60;99.90;;;;;;5111225;28;20463;-65
2021/10/29 03:58:20;;;;;;;48.43;32.20;;;7.60;99.90;;;;;;5114695;27;20195;-65
2021/10/29 04:00:47;;;;;;;42.97;29.23;;;7.60;99.90;;;;;;5115177;28;20201;-65
2021/10/29 04:03:14;;;;;;;45.97;29.30;;;7.60;99.90;;;;;;5109810;28;20242;-65
2021/10/29 04:05:41;;;;;;;49.73;32.50;;;7.60;99.90;;;;;;5111498;28;20607;-64
2021/10/29 04:08:09;;;;;;;51.97;30.87;;;7.50;99.90;;;;;;5113632;28;20215;-64
2021/10/29 04:10:41;;;;;;;48.83;29.67;;;7.50;99.90;;;;;;5123050;28;20211;-65
2021/10/29 04:13:11;;;;;;;45.93;28.50;;;7.50;99.90;;;;;;5111251;28;20229;-65
2021/10/29 04:15:39;;;;;;;49.13;30.83;;;7.50;99.90;;;;;;5110996;28;20214;-65
2021/10/29 04:18:07;;;;;;;47.53;30.30;;;7.50;99.90;;;;;;5111582;28;20299;-65
2021/10/29 04:20:34;;;;;;;45.40;31.33;;;7.50;99.90;;;;;;5119469;28;20287;-66
2021/10/29 04:23:01;;;;;;;46.87;30.13;;;7.50;99.90;;;;;;5118258;28;20229;-63
2021/10/29 04:25:28;;;;;;;47.00;29.50;;;7.50;99.90;;;;;;5112088;28;20213;-66
2021/10/29 04:27:58;;;;;;;45.53;30.27;;;7.50;99.90;;;;;;5122359;28;20212;-65
2021/10/29 04:30:29;;;;;;;43.10;27.70;;;7.50;99.90;;;;;;5110219;28;20290;-66
2021/10/29 04:32:56;;;;;;;44.33;30.67;;;7.40;99.90;;;;;;5111842;28;20672;-65
2021/10/29 04:35:24;;;;;;;46.20;30.67;;;7.40;99.90;;;;;;5107079;28;20213;-64
2021/10/29 04:37:51;;;;;;;45.40;28.87;;;7.40;99.90;;;;;;5112653;28;20208;-64
2021/10/29 04:40:18;;;;;;;46.63;29.80;;;7.40;99.90;;;;;;5125895;28;20679;-65
2021/10/29 04:42:45;;;;;;;41.63;27.90;;;7.30;99.90;;;;;;5111553;28;20224;-65
2021/10/29 04:45:12;;;;;;;42.90;28.50;;;7.40;99.90;;;;;;5105679;28;20197;-65
2021/10/29 04:47:40;;;;;;;43.53;28.90;;;7.40;99.90;;;;;;5113126;28;20204;-65
2021/10/29 04:50:08;;;;;;;42.40;28.43;;;7.40;99.90;;;;;;5123371;28;20208;-66
2021/10/29 04:52:35;;;;;;;41.53;26.77;;;7.40;99.90;;;;;;5125539;28;20214;-64
2021/10/29 04:55:02;;;;;;;46.53;28.93;;;7.30;99.90;;;;;;5116591;28;20203;-65
2021/10/29 04:57:28;;;;;;;44.57;29.60;;;7.40;99.90;;;;;;5117862;28;20224;-66
2021/10/29 04:59:57;;;;;;;45.30;28.17;;;7.40;99.90;;;;;;5129745;28;20234;-65
2021/10/29 05:02:24;;;;;;;44.30;29.30;;;7.40;99.90;;;;;;5116893;28;20716;-65
2021/10/29 05:04:52;;;;;;;41.20;28.20;;;7.40;99.90;;;;;;5121571;28;20207;-65
2021/10/29 05:07:19;;;;;;;43.67;26.93;;;7.40;99.90;;;;;;5113746;27;20207;-65
2021/10/29 05:09:46;;;;;;;41.23;27.40;;;7.40;99.90;;;;;;5131669;27;20565;-64
2021/10/29 05:12:12;;;;;;;47.87;29.30;;;7.40;99.90;;;;;;5118309;27;20208;-65
2021/10/29 05:14:39;;;;;;;40.20;27.20;;;7.50;99.90;;;;;;5119744;27;20206;-64
2021/10/29 05:17:06;;;;;;;40.67;26.23;;;7.50;99.90;;;;;;5111060;28;20207;-65
2021/10/29 05:19:33;;;;;;;40.47;27.27;;;7.50;99.90;;;;;;5114628;28;20230;-64
2021/10/29 05:22:01;;;;;;;40.43;27.13;;;7.50;99.90;;;;;;5114108;28;20196;-65
2021/10/29 05:24:28;;;;;;;42.27;27.77;;;7.50;99.90;;;;;;5113511;28;20226;-65
2021/10/29 05:26:55;;;;;;;40.40;27.00;;;7.50;99.90;;;;;;5126691;27;20203;-64
2021/10/29 05:29:22;;;;;;;42.77;26.20;;;7.50;99.90;;;;;;5121504;27;20293;-65
2021/10/29 05:31:49;;;;;;;40.60;28.13;;;7.60;99.90;;;;;;5118639;27;20217;-64
2021/10/29 05:34:15;;;;;;;42.43;27.80;;;7.60;99.90;;;;;;5126468;27;20290;-65
2021/10/29 05:36:42;;;;;;;41.33;27.27;;;7.60;99.90;;;;;;5113505;28;20204;-65
2021/10/29 05:39:10;;;;;;;42.87;26.27;;;7.60;99.90;;;;;;5124817;27;20204;-66
2021/10/29 05:41:38;;;;;;;39.23;25.13;;;7.60;99.90;;;;;;5113467;28;20215;-65
2021/10/29 05:44:05;;;;;;;38.97;25.87;;;7.70;99.90;;;;;;5126293;27;20315;-65
2021/10/29 05:46:32;;;;;;;36.10;25.33;;;7.70;99.90;;;;;;5110637;28;20696;-65
2021/10/29 05:49:00;;;;;;;45.80;28.17;;;7.70;99.90;;;;;;5110040;28;20208;-65
2021/10/29 05:51:28;;;;;;;35.90;25.17;;;7.70;99.90;;;;;;5120249;27;20207;-67
2021/10/29 05:54:08;;;;;;;41.57;25.67;;;7.80;99.90;;;;;;5135486;27;20211;-67
2021/10/29 05:56:36;;;;;;;40.13;25.57;;;7.80;99.90;;;;;;5114354;28;20228;-67
2021/10/29 05:59:05;;;;;;;38.03;23.50;;;7.80;99.90;;;;;;5113744;28;20254;-65
2021/10/29 06:01:32;;;;;;;35.30;24.70;;;7.90;99.90;;;;;;5113468;28;20212;-66
2021/10/29 06:04:00;;;;;;;39.40;25.17;;;7.90;99.90;;;;;;5113928;28;20310;-67
2021/10/29 06:06:27;;;;;;;38.67;24.47;;;8.00;99.90;;;;;;5114048;28;20210;-66
2021/10/29 06:08:54;;;;;;;42.00;25.17;;;8.00;99.90;;;;;;5112989;28;20214;-66
2021/10/29 06:11:26;;;;;;;40.57;26.80;;;8.00;99.90;;;;;;5113353;28;20204;-65
2021/10/29 06:13:54;;;;;;;35.87;24.13;;;8.10;99.90;;;;;;5113245;28;20300;-66
2021/10/29 06:16:21;;;;;;;38.60;26.17;;;8.10;99.90;;;;;;5112801;27;20199;-67
2021/10/29 06:18:48;;;;;;;37.63;23.73;;;8.20;99.90;;;;;;5119438;27;20231;-66
2021/10/29 06:21:17;;;;;;;34.67;23.70;;;8.30;99.90;;;;;;5113040;28;20648;-70
2021/10/29 06:23:54;;;;;;;36.43;24.97;;;8.40;99.90;;;;;;5112169;28;20268;-69
2021/10/29 06:26:24;;;;;;;34.73;24.00;;;8.50;99.90;;;;;;5112920;28;20283;-70
2021/10/29 06:28:51;;;;;;;36.20;24.47;;;8.50;99.90;;;;;;5118211;27;20208;-68
2021/10/29 06:31:20;;;;;;;38.53;23.67;;;8.50;99.90;;;;;;5123283;27;20648;-70
2021/10/29 06:33:48;;;;;;;37.43;24.87;;;8.60;99.90;;;;;;5123088;27;20674;-69
2021/10/29 06:36:15;;;;;;;34.17;23.33;;;8.70;99.90;;;;;;5118255;27;20200;-68
2021/10/29 06:38:43;;;;;;;33.57;24.07;;;8.80;99.90;;;;;;5112950;28;20290;-70
2021/10/29 06:41:10;;;;;;;34.67;23.33;;;9.00;99.90;;;;;;5111878;28;20200;-67
2021/10/29 06:43:41;;;;;;;35.93;23.93;;;9.20;99.90;;;;;;5111055;28;20224;-68
2021/10/29 06:49:06;;;;;;;34.77;22.80;;;9.70;99.90;;;;;;5118053;27;20217;-69
2021/10/29 06:59:58;;;;;;;35.43;23.00;;;10.20;99.90;;;;;;5116972;27;20246;-67
2021/10/29 07:11:34;;;;;;;31.93;22.27;;;10.50;99.90;;;;;;5090273;27;20207;-69
2021/10/29 07:41:26;;;;;;;31.90;21.07;;;12.00;99.90;;;;;;5099268;28;20308;-66
2021/10/29 07:43:56;;;;;;;30.03;22.60;;;12.00;99.90;;;;;;5110202;28;20264;-66
2021/10/29 07:46:23;;;;;;;32.00;21.47;;;12.10;99.90;;;;;;5110051;28;20208;-66
2021/10/29 07:48:50;;;;;;;31.67;21.20;;;12.30;99.90;;;;;;5112990;27;20303;-66
2021/10/29 07:51:17;;;;;;;34.90;22.50;;;12.40;99.90;;;;;;5110819;27;20222;-66
2021/10/29 07:53:46;;;;;;;31.13;21.20;;;12.40;99.90;;;;;;5119064;27;20203;-68
2021/10/29 07:56:13;;;;;;;28.60;21.13;;;12.60;99.90;;;;;;5113012;28;20258;-69
2021/10/29 07:58:40;;;;;;;34.23;21.30;;;12.70;99.90;;;;;;5109213;28;20280;-66
2021/10/29 08:01:07;;;;;;;31.33;21.03;;;12.80;99.90;;;;;;5110158;28;20204;-66
2021/10/29 08:03:34;;;;;;;28.03;20.67;;;12.90;99.90;;;;;;5110403;28;20216;-66
2021/10/29 08:06:01;;;;;;;33.72;25.35;;;13.00;99.90;;;;;;5108244;28;20524;-67
2021/10/29 08:08:28;;;;;;;31.63;22.17;;;13.20;99.90;;;;;;5100134;28;20287;-65
2021/10/29 08:10:56;;;;;;;31.27;22.80;;;13.30;99.90;;;;;;5104169;28;20635;-66
2021/10/29 08:13:23;;;;;;;33.15;24.13;;;13.40;99.90;;;;;;5109812;28;20533;-66
2021/10/29 08:15:54;;;;;;;31.50;20.47;;;13.50;99.90;;;;;;5114323;28;20287;-67
2021/10/29 08:18:23;;;;;;;31.13;21.27;;;13.60;99.90;;;;;;5110163;28;20195;-67
2021/10/29 08:20:50;;;;;;;30.65;24.05;;;13.80;99.90;;;;;;5108250;28;20900;-66
2021/10/29 08:23:17;;;;;;;32.37;24.60;;;14.00;99.90;;;;;;5106132;28;20509;-67
2021/10/29 08:25:44;;;;;;;35.63;21.80;;;14.20;99.90;;;;;;5109860;28;20553;-67
2021/10/29 08:28:12;;;;;;;29.43;20.47;;;14.40;99.90;;;;;;5125074;28;20627;-68
2021/10/29 08:30:39;;;;;;;30.80;23.57;;;14.50;99.90;;;;;;5108848;28;20442;-68
2021/10/29 08:33:06;;;;;;;36.63;25.13;;;14.70;99.40;;;;;;5101562;28;20441;-68
2021/10/29 08:35:33;;;;;;;32.13;22.10;;;14.80;98.70;;;;;;5109431;28;20714;-66
2021/10/29 08:38:03;;;;;;;28.70;21.40;;;14.90;99.70;;;;;;5109677;28;20291;-66
2021/10/29 08:40:29;;;;;;;30.13;20.97;;;15.20;99.90;;;;;;5110088;28;20197;-67
2021/10/29 08:42:56;;;;;;;29.77;20.70;;;15.80;99.90;;;;;;5113500;28;20214;-68
2021/10/29 08:45:27;;;;;;;24.77;18.70;;;17.70;99.90;;;;;;5127326;27;20574;-69
2021/10/29 08:47:59;;;;;;;29.15;20.00;;;20.70;93.80;;;;;;5107305;27;20207;-68
2021/10/29 08:50:26;;;;;;;27.25;18.55;;;23.80;75.90;;;;;;5123450;27;20695;-69
2021/10/29 08:52:53;;;;;;;27.73;20.05;;;26.40;58.30;;;;;;5129022;27;20195;-69
2021/10/29 08:55:25;;;;;;;26.17;18.90;;;28.50;51.60;;;;;;5117822;27;20542;-69
2021/10/29 08:57:52;;;;;;;24.33;19.13;;;30.30;46.60;;;;;;5114045;28;20234;-70
2021/10/29 09:00:22;;;;;;;26.52;18.65;;;31.70;42.30;;;;;;5123792;27;20219;-70
2021/10/29 09:03:00;;;;;;;27.38;21.38;;;32.90;39.60;;;;;;5122323;27;20230;-69
2021/10/29 09:05:31;;;;;;;24.00;20.38;;;34.00;37.10;;;;;;5130752;27;21260;-70
2021/10/29 09:08:10;;;;;;;28.90;21.33;;;34.90;35.40;;;;;;5120475;27;20493;-69
2021/10/29 09:16:44;;;;;;;21.88;18.33;;;36.90;31.20;;;;;;5132380;27;20194;-71
2021/10/29 09:33:11;;;;;;;20.27;18.17;;;40.50;28.00;;;;;;5126146;27;20197;-67
2021/10/29 09:35:41;;;;;;;21.05;17.95;;;41.00;27.20;;;;;;5122740;27;20226;-68
2021/10/29 09:38:10;;;;;;;21.77;17.45;;;41.10;26.90;;;;;;5128176;27;20199;-68
2021/10/29 09:40:39;;;;;;;21.35;16.88;;;41.00;26.70;;;;;;5126857;27;20663;-69
2021/10/29 09:43:13;;;;;;;21.08;17.38;;;41.20;26.70;;;;;;5130134;27;20215;-66
2021/10/29 09:45:47;;;;;;;18.95;16.95;;;41.30;26.30;;;;;;5126859;27;20642;-68
2021/10/29 09:48:18;;;;;;;18.65;16.27;;;41.20;26.30;;;;;;5128855;27;20485;-67
2021/10/29 09:50:50;;;;;;;20.60;16.67;;;41.40;26.20;;;;;;5127413;27;20276;-68
2021/10/29 09:53:36;;;;;;;21.08;16.83;;;42.10;25.80;;;;;;5121193;27;20196;-68
2021/10/29 09:56:06;;;;;;;22.25;17.02;;;42.20;25.60;;;;;;5125009;27;20224;-69
2021/10/29 09:58:34;;;;;;;22.75;17.90;;;42.60;25.60;;;;;;5127313;27;20609;-67
2021/10/29 10:01:02;;;;;;;22.05;18.55;;;42.90;25.30;;;;;;5131466;27;20199;-67
2021/10/29 10:03:30;;;;;;;19.80;17.38;;;43.20;25.10;;;;;;5124881;27;20224;-69
2021/10/29 10:06:01;;;;;;;20.42;18.33;;;43.70;24.80;;;;;;5121866;27;20671;-67
2021/10/29 10:08:28;;;;;;;21.85;17.88;;;43.80;24.70;;;;;;5128073;27;20198;-67
2021/10/29 10:10:57;;;;;;;19.35;16.83;;;44.30;24.60;;;;;;5131084;27;20210;-67
2021/10/29 10:13:26;;;;;;;19.15;17.13;;;43.80;24.00;;;;;;5127443;27;20412;-68
2021/10/29 10:15:58;;;;;;;21.67;18.60;;;43.20;24.50;;;;;;5126926;27;20203;-67
2021/10/29 10:18:25;;;;;;;24.17;21.13;;;42.80;24.60;;;;;;5127587;27;20204;-68
2021/10/29 10:20:53;;;;;;;21.83;17.75;;;42.60;24.50;;;;;;5127920;27;20242;-67
2021/10/29 10:23:26;;;;;;;18.83;16.70;;;42.70;24.70;;;;;;5126207;27;20221;-68
2021/10/29 10:28:51;;;;;;;21.95;18.38;;;43.30;24.60;;;;;;5122896;27;20207;-68
2021/10/29 10:40:43;;;;;;;20.98;17.73;;;43.80;23.90;;;;;;5125548;27;20213;-67
2021/10/29 10:43:34;;;;;;;18.20;16.20;;;43.60;24.10;;;;;;5116335;27;20195;-70
2021/10/29 10:46:08;;;;;;;20.65;17.58;;;43.60;24.10;;;;;;5119888;27;20210;-67
2021/10/29 10:48:38;;;;;;;20.75;17.83;;;44.10;23.90;;;;;;5128288;27;20206;-68
2021/10/29 10:51:34;;;;;;;20.90;18.42;;;44.50;23.50;;;;;;5118051;27;20286;-71
2021/10/29 10:54:05;;;;;;;19.92;17.77;;;44.70;23.50;;;;;;5118943;27;20343;-69
2021/10/29 10:57:04;;;;;;;20.58;17.05;;;44.30;23.70;;;;;;5111525;27;20215;-69
2021/10/29 11:05:19;;;;;;;23.92;19.15;;;45.80;23.20;;;;;;5104911;27;20230;-71
2021/10/29 11:10:35;;;;;;;20.05;17.80;;;46.20;22.60;;;;;;5109902;27;20187;-69
2021/10/29 11:13:13;;;;;;;19.35;16.98;;;45.70;22.70;;;;;;5122317;27;20209;-70
2021/10/29 11:15:41;;;;;;;19.88;17.73;;;45.00;23.00;;;;;;5115105;27;20217;-70
2021/10/29 11:18:31;;;;;;;21.60;17.92;;;45.20;23.20;;;;;;5111846;27;20286;-71
2021/10/29 11:21:08;;;;;;;23.08;17.90;;;45.60;22.80;;;;;;5100578;28;20608;-70
2021/10/29 11:23:36;;;;;;;21.80;17.40;;;45.80;22.90;;;;;;5117876;27;20207;-70
2021/10/29 11:26:05;;;;;;;19.58;17.60;;;45.90;22.70;;;;;;5122102;27;20228;-69
2021/10/29 11:28:36;;;;;;;19.25;17.13;;;46.20;22.60;;;;;;5107046;28;20211;-72
2021/10/29 11:31:04;;;;;;;20.42;16.77;;;46.40;22.40;;;;;;5111509;27;20195;-68
2021/10/29 11:33:32;;;;;;;19.98;17.00;;;46.30;22.30;;;;;;5111185;28;20260;-69
2021/10/29 11:36:04;;;;;;;19.40;17.50;;;45.70;22.50;;;;;;5110260;27;20441;-69
2021/10/29 11:38:33;;;;;;;20.35;17.17;;;45.50;22.90;;;;;;5103971;28;20211;-69
2021/10/29 11:41:02;;;;;;;19.95;17.83;;;45.60;22.60;;;;;;5108918;27;20209;-68
2021/10/29 11:43:31;;;;;;;20.30;18.13;;;44.40;22.30;;;;;;5107894;28;20239;-69
2021/10/29 11:46:00;;;;;;;20.40;17.95;;;41.80;23.20;;;;;;5119766;27;20552;-70
2021/10/29 11:48:28;;;;;;;23.58;18.38;;;38.90;24.80;;;;;;5117974;27;20208;-68
2021/10/29 11:51:06;;;;;;;20.10;17.45;;;35.90;26.60;;;;;;5107626;28;20264;-67
2021/10/29 11:53:37;;;;;;;23.02;18.02;;;33.10;29.10;;;;;;5109441;27;20244;-69
2021/10/29 11:56:14;;;;;;;24.50;18.70;;;30.80;31.40;;;;;;5111782;28;20307;-67
2021/10/29 11:58:47;;;;;;;26.58;19.13;;;28.70;33.80;;;;;;5108093;28;20318;-68
2021/10/29 12:01:30;;;;;;;23.27;19.02;;;26.90;36.70;;;;;;5100585;28;20282;-68
2021/10/29 12:09:28;;;;;;;23.88;18.77;;;22.80;43.60;;;;;;5110624;28;20452;-69
2021/10/29 12:11:56;;;;;;;26.88;18.35;;;21.80;45.20;;;;;;5105807;28;20207;-68
2021/10/29 12:14:31;;;;;;;24.05;19.20;;;21.10;46.70;;;;;;5111953;28;20219;-68
2021/10/29 12:17:11;;;;;;;25.38;18.65;;;20.60;48.20;;;;;;5115137;27;20656;-67
2021/10/29 12:19:39;;;;;;;25.23;19.02;;;20.10;50.00;;;;;;5115099;28;20208;-67
2021/10/29 12:22:15;;;;;;;28.63;18.80;;;19.70;50.30;;;;;;5111612;28;20260;-68
2021/10/29 12:24:48;;;;;;;27.23;18.73;;;19.30;51.10;;;;;;5120750;27;20312;-69
2021/10/29 12:27:22;;;;;;;22.95;18.38;;;18.90;52.20;;;;;;5119088;27;20208;-69
2021/10/29 12:30:12;;;;;;;28.45;18.55;;;18.50;53.50;;;;;;5118053;27;20314;-69
2021/10/29 12:38:36;;;;;;;23.77;18.37;;;17.40;56.60;;;;;;5121919;27;20191;-71
2021/10/29 12:52:58;;;;;;;27.20;18.30;;;16.50;60.30;;;;;;5115144;28;20218;-66
2021/10/29 13:03:45;;;;;;;21.00;16.87;;;16.00;63.50;;;;;;5110533;28;20260;-68
2021/10/29 13:06:16;;;;;;;27.03;17.30;;;15.90;63.90;;;;;;5113415;28;20227;-67
2021/10/29 13:08:48;;;;;;;23.53;17.33;;;15.90;64.50;;;;;;5114478;28;20636;-69
2021/10/29 13:11:17;;;;;;;24.40;17.13;;;15.90;65.00;;;;;;5104264;28;20200;-69
2021/10/29 13:13:47;;;;;;;23.83;16.97;;;15.80;65.20;;;;;;5111121;28;20200;-68
2021/10/29 13:16:15;;;;;;;26.07;16.60;;;15.80;65.80;;;;;;5100686;28;20232;-68
2021/10/29 13:24:39;;;;;;;21.70;15.70;;;15.60;67.00;;;;;;5115231;27;20274;-68
2021/10/29 13:27:30;;;;;;;21.17;14.70;;;15.60;67.30;;;;;;5108437;28;20200;-67
2021/10/29 13:52:22;;;;;;;20.10;13.63;;;15.30;69.90;;;;;;5116062;28;20245;-70
2021/10/29 13:54:58;;;;;;;19.43;14.73;;;15.30;70.30;;;;;;5117283;27;20200;-70
2021/10/29 14:03:11;;;;;;;18.47;12.20;;;15.10;69.70;;;;;;5126220;27;20195;-70
2021/10/29 14:16:58;;;;;;;16.27;11.10;;;15.10;70.20;;;;;;5127026;27;20658;-69
2021/10/29 14:30:27;;;;;;;14.67;10.63;;;14.90;69.50;;;;;;5124777;27;20199;-69
2021/10/29 14:32:58;;;;;;;14.70;10.33;;;14.90;69.50;;;;;;5125490;27;20221;-70
2021/10/29 14:35:27;;;;;;;14.83;9.93;;;14.80;69.40;;;;;;5122857;27;20287;-69
2021/10/29 14:38:03;;;;;;;18.03;10.80;;;14.80;69.40;;;;;;5122840;27;20195;-70
2021/10/29 14:40:34;;;;;;;16.80;9.97;;;14.80;69.60;;;;;;5119225;27;20605;-69
2021/10/29 14:43:06;;;;;;;13.13;10.57;;;14.70;69.90;;;;;;5120845;27;20289;-70
2021/10/29 14:45:37;;;;;;;16.03;10.27;;;14.70;70.10;;;;;;5121645;27;20212;-70
2021/10/29 14:48:18;;;;;;;17.23;10.47;;;14.70;70.10;;;;;;5123439;27;20294;-70
2021/10/29 14:51:12;;;;;;;14.50;10.70;;;14.70;70.10;;;;;;5125188;27;20222;-69
2021/10/29 15:02:13;;;;;;;14.90;9.97;;;14.60;70.50;;;;;;5129336;27;20196;-70
2021/10/29 15:15:54;;;;;;;12.77;9.70;;;14.40;71.40;;;;;;5115313;27;20611;-70
2021/10/29 15:18:44;;;;;;;14.00;9.33;;;14.30;71.30;;;;;;5112452;27;20578;-69
2021/10/29 15:29:48;;;;;;;12.93;9.77;;;14.20;71.40;;;;;;5129524;27;20199;-70
2021/10/29 15:43:18;;;;;;;12.40;9.70;;;14.10;71.70;;;;;;5124477;27;20230;-69
2021/10/29 15:45:47;;;;;;;13.50;9.10;;;14.00;71.60;;;;;;5120318;27;20207;-69
2021/10/29 15:48:18;;;;;;;14.93;10.50;;;14.00;71.70;;;;;;5120288;27;20214;-70
2021/10/29 15:50:45;;;;;;;12.53;10.10;;;14.00;71.90;;;;;;5119495;27;20660;-69
2021/10/29 15:53:13;;;;;;;15.27;10.53;;;14.00;71.90;;;;;;5112155;28;20662;-69
2021/10/29 15:55:43;;;;;;;18.17;10.27;;;13.90;71.90;;;;;;5111706;28;20195;-70
2021/10/29 15:58:18;;;;;;;15.27;9.40;;;13.90;72.00;;;;;;5113091;28;20206;-70
2021/10/29 16:00:56;;;;;;;12.67;9.70;;;13.90;72.10;;;;;;5127908;27;20655;-69
2021/10/29 16:03:29;;;;;;;14.37;10.07;;;13.90;72.00;;;;;;5113077;28;20253;-69
2021/10/29 16:17:04;;;;;;;16.47;10.13;;;13.80;71.90;;;;;;5110151;28;20195;-70
2021/10/29 16:19:32;;;;;;;15.90;10.20;;;13.80;72.60;;;;;;5098442;28;20231;-68
2021/10/29 16:22:00;;;;;;;13.50;9.87;;;13.70;72.00;;;;;;5106211;28;20367;-67
2021/10/29 16:24:27;;;;;;;16.07;10.63;;;13.70;72.20;;;;;;5110856;28;20205;-69
2021/10/29 16:26:55;;;;;;;15.47;9.67;;;13.70;72.30;;;;;;5116999;28;20251;-70
2021/10/29 16:29:23;;;;;;;14.37;10.17;;;13.70;72.40;;;;;;5117011;28;20245;-70
2021/10/29 16:31:50;;;;;;;15.87;10.43;;;13.70;72.40;;;;;;5121021;28;20609;-70